Time;durP1;ratioP1;P1;durP2;ratioP2;P2;SDS_P1;SDS_P2;PMS_P1;PMS_P2;Temp;Humidity;BMP_temperature;BMP_pressure;BME280_temperature;BME280_humidity;BME280_pressure;Samples;Min_cycle;Max_cycle;Signal;HPM_P1;HPM_P2
2023/01/24 00:00:10;;;;;;;11.45;7.15;;;;;;;3.87;74.20;101059.75;421213;23;1220;-68
2023/01/24 00:00:22;;;;;;;12.20;7.05;;;;;;;3.90;74.39;101054.63;421447;23;1128;-68
2023/01/24 00:00:34;;;;;;;11.38;6.90;;;;;;;3.91;74.52;101056.38;422776;23;1250;-68
2023/01/24 00:00:46;;;;;;;10.73;6.88;;;;;;;3.92;74.14;101052.97;423094;23;1014;-68
2023/01/24 00:00:58;;;;;;;11.52;6.88;;;;;;;3.94;74.53;101048.75;423271;23;1224;-69
2023/01/24 00:01:10;;;;;;;11.55;6.68;;;;;;;3.96;73.94;101054.78;423231;23;1059;-68
2023/01/24 00:01:23;;;;;;;10.90;6.63;;;;;;;3.98;73.91;101054.78;422995;23;1083;-68
2023/01/24 00:01:35;;;;;;;10.75;6.85;;;;;;;3.94;73.86;101059.03;423276;23;1204;-68
2023/01/24 00:01:47;;;;;;;10.70;6.85;;;;;;;3.88;74.05;101063.19;423357;23;1081;-68
2023/01/24 00:01:59;;;;;;;10.95;6.88;;;;;;;3.90;73.91;101057.22;421266;23;1274;-68
2023/01/24 00:02:11;;;;;;;12.20;6.90;;;;;;;3.92;73.80;101060.69;423298;23;977;-68
2023/01/24 00:02:23;;;;;;;12.57;7.05;;;;;;;3.93;74.07;101062.44;423218;23;1483;-68
2023/01/24 00:02:35;;;;;;;12.52;7.15;;;;;;;3.93;73.98;101057.28;423208;23;1182;-68
2023/01/24 00:02:47;;;;;;;11.95;6.88;;;;;;;3.97;73.69;101058.22;423487;23;1002;-68
2023/01/24 00:02:59;;;;;;;11.45;7.10;;;;;;;3.95;73.95;101050.44;420544;23;1170;-68
2023/01/24 00:03:15;;;;;;;11.20;7.10;;;;;;;3.94;74.40;101061.59;420592;23;1285;-68
2023/01/24 00:03:27;;;;;;;12.45;7.57;;;;;;;3.97;74.20;101059.06;421154;23;1073;-68
2023/01/24 00:03:39;;;;;;;13.07;7.60;;;;;;;3.99;74.14;101062.53;421268;23;1242;-69
2023/01/24 00:03:51;;;;;;;12.77;7.32;;;;;;;4.02;73.93;101055.69;421371;23;1361;-68
2023/01/24 00:04:03;;;;;;;11.45;6.93;;;;;;;4.02;74.16;101055.69;422498;23;1263;-68
2023/01/24 00:04:15;;;;;;;11.27;6.97;;;;;;;4.01;73.79;101054.84;423386;23;1211;-69
2023/01/24 00:04:27;;;;;;;12.48;7.30;;;;;;;3.99;73.50;101057.38;422820;23;1360;-68
2023/01/24 00:04:39;;;;;;;12.88;7.30;;;;;;;3.96;73.92;101057.34;423519;23;1336;-68
2023/01/24 00:04:51;;;;;;;11.98;7.20;;;;;;;3.99;73.80;101061.66;423598;23;1077;-68
2023/01/24 00:05:04;;;;;;;11.77;7.10;;;;;;;3.98;73.97;101050.53;423585;23;1062;-68
2023/01/24 00:05:16;;;;;;;11.25;6.97;;;;;;;4.01;73.97;101060.00;423404;23;1076;-68
2023/01/24 00:05:29;;;;;;;11.35;6.90;;;;;;;4.04;73.94;101056.59;423709;23;1311;-69
2023/01/24 00:05:43;;;;;;;11.23;6.97;;;;;;;4.05;73.48;101060.91;423591;23;1059;-68
2023/01/24 00:05:55;;;;;;;11.63;6.95;;;;;;;4.05;73.69;101060.91;423608;23;1149;-68
2023/01/24 00:06:07;;;;;;;12.60;6.90;;;;;;;3.96;73.27;101057.34;423685;23;1026;-68
2023/01/24 00:06:19;;;;;;;12.63;6.90;;;;;;;3.95;73.29;101058.16;423178;23;1104;-68
2023/01/24 00:06:31;;;;;;;11.50;6.82;;;;;;;4.00;73.65;101061.69;421199;23;1210;-68
2023/01/24 00:06:43;;;;;;;11.30;6.65;;;;;;;4.04;73.81;101060.03;421205;23;1054;-68
2023/01/24 00:06:55;;;;;;;12.13;6.70;;;;;;;3.83;73.84;101065.69;421388;23;1038;-68
2023/01/24 00:07:07;;;;;;;13.32;7.13;;;;;;;3.75;73.66;101054.38;421469;23;1051;-68
2023/01/24 00:07:19;;;;;;;12.43;7.15;;;;;;;3.77;73.90;101055.28;421164;23;1171;-68
2023/01/24 00:07:33;;;;;;;11.35;6.97;;;;;;;3.80;74.19;101063.03;420451;23;1077;-68
2023/01/24 00:07:45;;;;;;;11.20;6.70;;;;;;;3.76;74.17;101058.69;422168;23;1168;-68
2023/01/24 00:07:57;;;;;;;11.63;6.95;;;;;;;3.77;74.16;101060.44;422927;23;1029;-68
2023/01/24 00:08:12;;;;;;;12.15;6.97;;;;;;;3.66;74.27;101059.34;422944;23;1034;-68
2023/01/24 00:08:24;;;;;;;12.50;6.97;;;;;;;3.70;74.11;101056.00;423189;23;1259;-68
2023/01/24 00:08:36;;;;;;;11.93;6.80;;;;;;;3.70;74.41;101056.00;422166;23;1091;-69
2023/01/24 00:08:48;;;;;;;11.85;6.90;;;;;;;3.76;74.14;101058.69;422589;23;1197;-68
2023/01/24 00:09:00;;;;;;;11.88;7.07;;;;;;;3.77;74.20;101055.28;423126;23;1038;-68
2023/01/24 00:09:12;;;;;;;11.82;6.95;;;;;;;3.83;74.13;101051.97;423200;23;1055;-68
2023/01/24 00:09:24;;;;;;;11.73;6.82;;;;;;;3.67;74.15;101058.53;423239;23;1039;-69
2023/01/24 00:09:39;;;;;;;11.50;6.75;;;;;;;3.67;74.45;101059.38;422867;23;1064;-69
2023/01/24 00:09:51;;;;;;;10.32;6.47;;;;;;;3.69;74.23;101054.28;423251;23;1523;-69
2023/01/24 00:10:05;;;;;;;10.60;6.57;;;;;;;3.73;74.91;101058.66;423041;23;1158;-68
2023/01/24 00:10:19;;;;;;;12.18;6.95;;;;;;;3.77;74.61;101050.13;422712;23;1224;-68
2023/01/24 00:10:32;;;;;;;12.07;6.95;;;;;;;3.79;74.42;101051.03;422709;23;1153;-68
2023/01/24 00:10:44;;;;;;;10.73;6.68;;;;;;;3.83;74.18;101046.81;424746;23;1942;-68
2023/01/24 00:11:02;;;;;;;10.68;6.78;;;;;;;3.88;74.65;101058.03;425461;23;1237;-69
2023/01/24 00:11:17;;;;;;;11.35;7.03;;;;;;;3.87;74.51;101051.19;424741;23;1063;-68
2023/01/24 00:11:29;;;;;;;11.40;7.05;;;;;;;3.84;74.71;101057.09;423587;23;1186;-68
2023/01/24 00:11:44;;;;;;;11.55;7.05;;;;;;;3.86;74.43;101055.44;423259;23;1212;-69
2023/01/24 00:11:56;;;;;;;11.57;7.03;;;;;;;3.88;74.39;101056.31;423365;23;1115;-68
2023/01/24 00:12:08;;;;;;;11.65;7.18;;;;;;;3.88;74.33;101048.59;423338;23;1261;-68
2023/01/24 00:12:22;;;;;;;10.85;6.90;;;;;;;3.89;74.11;101044.34;423116;23;949;-68
2023/01/24 00:12:34;;;;;;;10.98;6.85;;;;;;;3.86;74.32;101054.56;422968;23;1156;-68
2023/01/24 00:12:46;;;;;;;11.23;6.90;;;;;;;3.86;74.26;101047.72;423323;23;1030;-68
2023/01/24 00:12:58;;;;;;;11.02;6.97;;;;;;;3.89;74.08;101055.50;422984;23;1252;-68
2023/01/24 00:13:12;;;;;;;11.43;7.20;;;;;;;3.90;74.10;101051.22;423303;23;1125;-69
2023/01/24 00:13:24;;;;;;;11.88;7.10;;;;;;;3.89;74.32;101045.22;423290;23;1041;-68
2023/01/24 00:13:37;;;;;;;12.63;7.13;;;;;;;3.90;74.21;101052.06;423265;23;1180;-68
2023/01/24 00:13:49;;;;;;;12.03;7.13;;;;;;;3.92;74.51;101050.38;422683;23;1349;-68
2023/01/24 00:14:01;;;;;;;11.32;7.05;;;;;;;3.69;74.52;101047.44;423378;23;1030;-68
2023/01/24 00:14:13;;;;;;;11.43;6.85;;;;;;;3.72;74.29;101051.75;423425;23;1069;-68
2023/01/24 00:14:25;;;;;;;11.00;6.65;;;;;;;3.74;74.86;101047.50;423681;23;1081;-68
2023/01/24 00:14:37;;;;;;;10.68;6.47;;;;;;;3.78;74.82;101044.13;424577;23;664;-68
2023/01/24 00:14:49;;;;;;;11.70;6.82;;;;;;;3.80;74.75;101052.75;423433;23;1207;-68
2023/01/24 00:15:01;;;;;;;12.25;7.10;;;;;;;3.71;74.58;101047.47;423653;23;1155;-68
2023/01/24 00:15:13;;;;;;;11.30;6.95;;;;;;;3.71;74.86;101047.47;423819;23;1217;-68
2023/01/24 00:15:25;;;;;;;10.40;6.72;;;;;;;3.72;74.53;101052.63;423463;23;1037;-68
2023/01/24 00:15:37;;;;;;;10.48;6.60;;;;;;;3.70;74.76;101048.28;423571;23;1077;-68
2023/01/24 00:15:49;;;;;;;11.18;6.63;;;;;;;3.75;74.87;101046.69;422988;23;1075;-68
2023/01/24 00:16:20;;;;;;;11.25;6.57;;;;;;;3.82;74.44;101050.22;423379;23;1178;-68
2023/01/24 00:16:33;;;;;;;11.30;6.93;;;;;;;3.86;74.47;101050.28;423933;23;1013;-69
2023/01/24 00:16:45;;;;;;;10.93;6.93;;;;;;;3.88;74.51;101047.75;423754;23;1188;-69
2023/01/24 00:16:57;;;;;;;10.82;6.88;;;;;;;3.89;74.44;101054.63;423605;23;996;-68
2023/01/24 00:17:09;;;;;;;10.90;6.72;;;;;;;3.90;74.30;101041.78;423706;23;1180;-68
2023/01/24 00:17:21;;;;;;;12.13;6.70;;;;;;;3.94;74.12;101048.75;423699;23;1249;-69
2023/01/24 00:17:33;;;;;;;12.35;6.75;;;;;;;3.96;74.24;101054.78;423471;23;1203;-68
2023/01/24 00:17:45;;;;;;;11.40;6.85;;;;;;;3.96;74.47;101047.06;423830;23;1166;-69
2023/01/24 00:17:58;;;;;;;12.43;7.20;;;;;;;3.80;73.96;101051.06;423273;23;1254;-68
2023/01/24 00:18:10;;;;;;;12.25;7.05;;;;;;;3.74;74.31;101045.81;423593;23;1094;-68
2023/01/24 00:18:22;;;;;;;12.00;6.97;;;;;;;3.66;74.67;101046.50;423609;23;1054;-69
2023/01/24 00:18:35;;;;;;;12.25;6.93;;;;;;;3.66;74.70;101051.63;423749;23;1140;-68
2023/01/24 00:18:47;;;;;;;12.27;6.93;;;;;;;3.72;75.01;101056.91;423823;23;1108;-68
2023/01/24 00:18:59;;;;;;;11.35;6.65;;;;;;;3.76;74.69;101048.38;423326;23;1046;-67
2023/01/24 00:19:12;;;;;;;11.35;6.63;;;;;;;3.77;74.84;101047.56;423175;23;1259;-66
2023/01/24 00:19:24;;;;;;;11.23;6.75;;;;;;;3.79;74.68;101054.47;420348;23;1197;-66
2023/01/24 00:19:36;;;;;;;12.52;7.15;;;;;;;3.81;74.85;101046.78;421454;23;1201;-66
2023/01/24 00:19:47;;;;;;;13.48;7.47;;;;;;;3.80;74.58;101045.94;421524;23;1089;-67
2023/01/24 00:19:59;;;;;;;12.40;7.28;;;;;;;3.85;74.21;101048.56;421638;23;1569;-67
2023/01/24 00:20:11;;;;;;;12.60;7.25;;;;;;;3.83;74.13;101045.09;421465;23;1089;-66
2023/01/24 00:20:24;;;;;;;12.95;7.25;;;;;;;3.84;74.59;101046.81;421321;23;1050;-67
2023/01/24 00:20:36;;;;;;;12.38;7.18;;;;;;;3.85;73.93;101046.00;421591;23;1072;-66
2023/01/24 00:20:48;;;;;;;11.95;7.00;;;;;;;3.79;74.10;101048.47;421418;23;1082;-66
2023/01/24 00:21:05;;;;;;;11.15;6.68;;;;;;;3.82;74.04;101043.34;421440;23;1069;-66
2023/01/24 00:21:20;;;;;;;11.27;6.85;;;;;;;3.53;74.61;101046.28;423118;23;1033;-66
2023/01/24 00:21:32;;;;;;;11.55;6.88;;;;;;;3.43;74.78;101048.66;423139;23;1179;-66
2023/01/24 00:21:44;;;;;;;12.13;7.05;;;;;;;3.54;74.77;101042.88;423473;23;1242;-66
2023/01/24 00:21:56;;;;;;;12.25;7.20;;;;;;;3.52;75.24;101044.56;423778;23;1184;-66
2023/01/24 00:22:08;;;;;;;12.57;7.25;;;;;;;3.59;75.06;101045.53;423631;23;1227;-66
2023/01/24 00:22:20;;;;;;;12.00;7.13;;;;;;;3.66;75.30;101041.34;423679;23;1085;-66
2023/01/24 00:22:34;;;;;;;11.85;7.05;;;;;;;3.66;75.17;101041.34;423518;23;1246;-66
2023/01/24 00:22:46;;;;;;;13.52;7.40;;;;;;;3.69;74.92;101036.28;423511;23;1094;-66
2023/01/24 00:22:58;;;;;;;12.93;7.45;;;;;;;3.71;74.74;101044.88;423631;23;1219;-66
2023/01/24 00:23:09;;;;;;;13.15;7.43;;;;;;;3.56;74.82;101041.22;423414;23;1172;-66
2023/01/24 00:23:21;;;;;;;12.18;7.28;;;;;;;3.59;75.17;101046.38;423192;23;1045;-66
2023/01/24 00:23:33;;;;;;;11.50;7.40;;;;;;;3.63;75.13;101041.31;423731;23;1651;-66
2023/01/24 00:23:48;;;;;;;11.60;7.45;;;;;;;3.65;75.01;101044.78;423661;23;1487;-67
2023/01/24 00:24:00;;;;;;;12.73;7.40;;;;;;;3.62;74.97;101039.56;423061;23;895;-66
2023/01/24 00:24:12;;;;;;;13.25;7.32;;;;;;;3.60;74.81;101045.56;424023;23;1124;-66
2023/01/24 00:24:28;;;;;;;12.07;7.03;;;;;;;3.55;75.31;101043.75;423078;23;1249;-66
2023/01/24 00:24:40;;;;;;;11.98;6.60;;;;;;;3.57;75.11;101048.06;423489;23;945;-66
2023/01/24 00:24:55;;;;;;;12.93;6.80;;;;;;;3.56;74.81;101038.63;423714;23;1029;-66
2023/01/24 00:25:07;;;;;;;12.55;6.90;;;;;;;3.52;75.16;101043.66;424714;23;772;-66
2023/01/24 00:25:19;;;;;;;10.68;6.70;;;;;;;3.48;75.29;101037.63;423467;23;1276;-66
2023/01/24 00:25:31;;;;;;;11.52;6.82;;;;;;;3.56;75.63;101046.34;423218;23;1078;-66
2023/01/24 00:25:43;;;;;;;11.98;6.95;;;;;;;3.54;75.55;101048.03;423634;23;1068;-66
2023/01/24 00:25:55;;;;;;;12.13;7.18;;;;;;;3.52;75.46;101054.84;423824;23;1209;-66
2023/01/24 00:26:08;;;;;;;11.45;6.93;;;;;;;3.59;75.40;101042.97;423665;23;1061;-66
2023/01/24 00:26:22;;;;;;;11.52;6.85;;;;;;;3.58;75.02;101043.78;423401;23;1006;-66
2023/01/24 00:26:34;;;;;;;11.98;6.90;;;;;;;3.51;75.31;101042.81;423501;23;1225;-66
2023/01/24 00:26:46;;;;;;;13.00;7.07;;;;;;;3.49;75.50;101044.50;423485;23;1102;-67
2023/01/24 00:26:58;;;;;;;12.60;7.10;;;;;;;3.58;75.13;101046.34;423644;23;1093;-67
2023/01/24 00:27:10;;;;;;;11.80;7.07;;;;;;;3.60;75.03;101040.44;423813;23;1205;-66
2023/01/24 00:27:22;;;;;;;11.13;7.05;;;;;;;3.63;75.13;101042.19;423679;23;1042;-66
2023/01/24 00:27:34;;;;;;;10.77;6.78;;;;;;;3.68;74.91;101045.72;423169;23;1176;-66
2023/01/24 00:27:46;;;;;;;10.63;6.57;;;;;;;3.71;75.14;101039.75;422907;23;1077;-66
2023/01/24 00:27:58;;;;;;;11.55;6.80;;;;;;;3.65;74.95;101039.63;423586;23;997;-66
2023/01/24 00:28:10;;;;;;;11.73;6.90;;;;;;;3.71;74.74;101044.88;423561;23;1029;-66
2023/01/24 00:28:22;;;;;;;11.48;7.03;;;;;;;3.71;74.38;101039.75;423601;23;1120;-66
2023/01/24 00:28:34;;;;;;;11.57;6.60;;;;;;;3.71;74.34;101043.19;424011;23;1038;-66
2023/01/24 00:28:47;;;;;;;11.65;6.43;;;;;;;3.73;74.35;101043.22;423072;23;1025;-68
2023/01/24 00:28:59;;;;;;;11.20;6.80;;;;;;;3.60;74.37;101045.56;423353;23;1037;-69
2023/01/24 00:29:11;;;;;;;11.18;6.75;;;;;;;3.59;74.98;101055.81;423681;23;1002;-69
2023/01/24 00:29:23;;;;;;;11.55;6.88;;;;;;;3.64;75.18;101049.03;423445;23;1069;-69
2023/01/24 00:29:34;;;;;;;12.63;6.95;;;;;;;3.68;74.67;101049.97;423632;23;1247;-69
2023/01/24 00:29:46;;;;;;;12.63;7.05;;;;;;;3.72;74.88;101051.75;423220;23;1140;-69
2023/01/24 00:30:01;;;;;;;12.10;6.95;;;;;;;3.75;74.87;101046.69;423185;23;1156;-68
2023/01/24 00:30:13;;;;;;;11.80;6.72;;;;;;;3.52;75.42;101049.72;423640;23;972;-68
2023/01/24 00:30:25;;;;;;;11.80;7.03;;;;;;;3.59;75.50;101051.53;423622;23;1236;-69
2023/01/24 00:30:37;;;;;;;11.27;7.22;;;;;;;3.64;75.25;101048.19;423033;23;1460;-69
2023/01/24 00:30:49;;;;;;;12.35;7.63;;;;;;;3.63;75.21;101051.59;423634;23;1089;-69
2023/01/24 00:31:02;;;;;;;12.30;7.30;;;;;;;3.67;75.57;101048.25;423198;23;993;-69
2023/01/24 00:31:15;;;;;;;11.80;6.85;;;;;;;3.67;75.04;101037.97;423734;23;1198;-69
2023/01/24 00:31:27;;;;;;;12.32;6.97;;;;;;;3.64;75.36;101051.59;423968;23;927;-69
2023/01/24 00:31:39;;;;;;;12.48;7.30;;;;;;;3.68;75.51;101049.97;424067;23;1030;-69
2023/01/24 00:31:51;;;;;;;12.23;7.03;;;;;;;3.56;75.38;101046.34;423924;23;1152;-69
2023/01/24 00:32:03;;;;;;;12.20;7.00;;;;;;;3.46;75.32;101047.03;423219;23;1051;-69
2023/01/24 00:32:15;;;;;;;11.32;6.85;;;;;;;3.52;75.14;101044.56;423716;23;994;-69
2023/01/24 00:32:27;;;;;;;11.98;7.00;;;;;;;3.58;75.15;101046.34;423769;23;1627;-69
2023/01/24 00:32:39;;;;;;;12.70;7.30;;;;;;;3.59;75.26;101053.25;423595;23;1893;-66
2023/01/24 00:32:51;;;;;;;12.52;7.22;;;;;;;3.43;74.76;101041.81;423829;23;1073;-67
2023/01/24 00:33:03;;;;;;;11.48;6.88;;;;;;;3.43;75.55;101046.94;424758;23;673;-66
2023/01/24 00:33:15;;;;;;;11.25;6.38;;;;;;;3.47;75.17;101046.16;423083;23;1024;-67
2023/01/24 00:33:27;;;;;;;11.98;6.75;;;;;;;3.49;75.64;101044.50;423590;23;1036;-67
2023/01/24 00:33:39;;;;;;;12.68;6.85;;;;;;;3.53;75.45;101041.13;423372;23;1053;-67
2023/01/24 00:33:51;;;;;;;13.65;7.30;;;;;;;3.55;75.46;101042.03;423194;23;1296;-67
2023/01/24 00:34:03;;;;;;;12.88;7.30;;;;;;;3.59;75.34;101046.38;423334;23;1019;-67
2023/01/24 00:34:15;;;;;;;11.77;7.47;;;;;;;3.63;75.42;101049.03;423209;23;1046;-66
2023/01/24 00:34:27;;;;;;;11.10;7.13;;;;;;;3.67;75.03;101053.38;423649;23;1026;-67
2023/01/24 00:34:39;;;;;;;11.32;6.72;;;;;;;3.69;74.91;101042.28;423041;23;1045;-67
2023/01/24 00:34:51;;;;;;;12.23;7.10;;;;;;;3.72;74.90;101050.06;423591;23;1060;-67
2023/01/24 00:35:03;;;;;;;12.15;7.00;;;;;;;3.64;74.77;101043.03;423594;23;1129;-67
2023/01/24 00:35:15;;;;;;;12.80;6.80;;;;;;;3.65;74.56;101044.78;424540;23;691;-66
2023/01/24 00:35:27;;;;;;;12.40;6.60;;;;;;;3.68;74.82;101052.53;423442;23;1204;-67
2023/01/24 00:35:39;;;;;;;12.95;6.82;;;;;;;3.68;75.08;101047.41;423615;23;1052;-69
2023/01/24 00:35:51;;;;;;;12.32;6.90;;;;;;;3.66;74.84;101051.63;423686;23;958;-67
2023/01/24 00:36:04;;;;;;;12.07;6.82;;;;;;;3.68;74.58;101047.41;423502;23;1181;-67
2023/01/24 00:36:16;;;;;;;11.40;6.97;;;;;;;3.63;74.73;101047.31;423593;23;1093;-67
2023/01/24 00:36:28;;;;;;;12.25;7.07;;;;;;;3.63;75.05;101047.31;423629;23;1080;-67
2023/01/24 00:36:40;;;;;;;11.73;6.68;;;;;;;3.64;74.93;101051.59;423729;23;1148;-67
2023/01/24 00:36:52;;;;;;;11.70;6.70;;;;;;;3.71;74.62;101044.88;423491;23;1074;-67
2023/01/24 00:37:04;;;;;;;10.98;6.55;;;;;;;3.71;74.79;101044.88;423973;23;838;-67
2023/01/24 00:37:16;;;;;;;10.68;6.45;;;;;;;3.73;74.88;101049.22;423712;23;1192;-67
2023/01/24 00:37:28;;;;;;;10.90;6.60;;;;;;;3.75;74.90;101047.53;423464;23;1182;-69
2023/01/24 00:37:40;;;;;;;12.25;6.90;;;;;;;3.76;74.37;101044.13;423086;23;1159;-69
2023/01/24 00:37:52;;;;;;;12.05;6.90;;;;;;;3.70;74.29;101043.16;423631;23;1140;-67
2023/01/24 00:38:04;;;;;;;12.20;7.03;;;;;;;3.76;74.44;101043.25;423458;23;1089;-67
2023/01/24 00:38:16;;;;;;;11.65;6.88;;;;;;;3.77;74.08;101050.13;426601;23;664;-67
2023/01/24 00:38:30;;;;;;;12.13;7.20;;;;;;;3.81;74.33;101046.78;425302;23;1010;-67
2023/01/24 00:38:42;;;;;;;11.30;7.05;;;;;;;3.82;73.98;101042.50;425556;23;1042;-67
2023/01/24 00:38:54;;;;;;;11.27;6.78;;;;;;;3.84;74.11;101040.81;422650;23;1097;-67
2023/01/24 00:39:06;;;;;;;12.43;6.88;;;;;;;3.87;73.84;101044.31;422938;23;1143;-67
2023/01/24 00:39:18;;;;;;;13.80;7.15;;;;;;;3.85;74.10;101043.41;423219;23;1195;-66
2023/01/24 00:39:30;;;;;;;13.57;7.18;;;;;;;3.85;74.06;101046.00;423708;23;1078;-67
2023/01/24 00:39:42;;;;;;;12.52;6.90;;;;;;;3.88;73.81;101053.75;422486;23;1132;-67
2023/01/24 00:39:54;;;;;;;13.05;7.03;;;;;;;3.89;74.07;101049.50;423406;23;1240;-67
2023/01/24 00:40:08;;;;;;;12.63;6.90;;;;;;;3.80;73.67;101037.31;423299;23;1029;-67
2023/01/24 00:40:20;;;;;;;12.77;6.95;;;;;;;3.87;74.21;101039.16;422781;23;1471;-67
2023/01/24 00:40:32;;;;;;;11.27;6.50;;;;;;;3.62;74.51;101045.56;423253;23;1167;-66
2023/01/24 00:40:44;;;;;;;10.77;6.53;;;;;;;3.68;74.46;101042.25;423033;23;1160;-67
2023/01/24 00:40:59;;;;;;;11.10;6.85;;;;;;;3.71;74.62;101039.75;422568;23;1048;-67
2023/01/24 00:41:11;;;;;;;11.25;7.10;;;;;;;3.74;74.15;101039.78;423288;23;931;-67
2023/01/24 00:41:23;;;;;;;12.23;7.25;;;;;;;3.74;74.28;101039.78;423362;23;1182;-67
2023/01/24 00:41:35;;;;;;;12.00;7.05;;;;;;;3.79;74.16;101043.31;421314;23;1157;-67
2023/01/24 00:41:47;;;;;;;11.38;6.93;;;;;;;3.78;74.47;101039.88;421451;23;1254;-67
2023/01/24 00:41:59;;;;;;;10.73;6.75;;;;;;;3.80;73.99;101040.78;421339;23;1171;-66
2023/01/24 00:42:11;;;;;;;10.13;6.53;;;;;;;3.79;73.79;101041.59;421388;23;1054;-67
2023/01/24 00:42:23;;;;;;;11.02;6.80;;;;;;;3.83;73.87;101045.09;421530;23;1180;-67
2023/01/24 00:42:35;;;;;;;11.93;6.97;;;;;;;3.82;73.92;101038.22;421328;23;1014;-66
2023/01/24 00:42:47;;;;;;;13.52;7.45;;;;;;;3.86;73.94;101045.13;421260;23;1123;-67
2023/01/24 00:42:59;;;;;;;12.88;7.55;;;;;;;3.88;73.77;101048.59;421956;23;1155;-67
2023/01/24 00:43:11;;;;;;;11.50;7.22;;;;;;;3.90;74.01;101046.91;423400;23;1010;-67
2023/01/24 00:43:23;;;;;;;10.93;6.95;;;;;;;3.89;73.76;101046.91;423391;23;1088;-67
2023/01/24 00:43:35;;;;;;;10.88;6.75;;;;;;;3.89;74.07;101045.22;423445;23;1176;-67
2023/01/24 00:43:47;;;;;;;12.25;7.20;;;;;;;3.91;74.17;101047.81;423805;23;1355;-67
2023/01/24 00:43:59;;;;;;;13.02;7.30;;;;;;;3.90;74.06;101046.06;423292;23;1137;-67
2023/01/24 00:44:11;;;;;;;12.57;7.13;;;;;;;3.90;74.04;101046.06;423943;23;825;-67
2023/01/24 00:44:23;;;;;;;11.30;7.00;;;;;;;3.78;74.16;101042.47;423432;23;1094;-67
2023/01/24 00:44:35;;;;;;;11.60;7.47;;;;;;;3.84;74.36;101045.97;423321;23;1223;-67
2023/01/24 00:44:47;;;;;;;11.00;7.03;;;;;;;3.82;73.87;101043.34;423399;23;1018;-67
2023/01/24 00:44:59;;;;;;;10.75;6.80;;;;;;;3.84;74.33;101044.25;423401;23;1236;-67
2023/01/24 00:45:11;;;;;;;10.52;6.72;;;;;;;3.87;74.11;101044.31;423575;23;1234;-67
2023/01/24 00:45:23;;;;;;;10.98;7.13;;;;;;;3.70;73.84;101046.59;423543;23;1128;-67
2023/01/24 00:45:36;;;;;;;10.65;6.97;;;;;;;3.78;73.79;101047.59;423161;23;1048;-67
2023/01/24 00:45:49;;;;;;;10.57;6.60;;;;;;;3.68;74.09;101049.97;421480;23;1124;-67
2023/01/24 00:46:04;;;;;;;11.23;6.53;;;;;;;3.73;74.53;101046.66;421379;23;1123;-67
2023/01/24 00:46:16;;;;;;;12.38;7.13;;;;;;;3.71;74.69;101045.75;421089;23;1057;-67
2023/01/24 00:46:28;;;;;;;12.10;7.03;;;;;;;3.76;74.26;101044.13;422421;23;673;-67
2023/01/24 00:46:41;;;;;;;11.82;6.82;;;;;;;3.73;74.53;101053.50;419337;23;1250;-67
2023/01/24 00:46:53;;;;;;;11.25;6.78;;;;;;;3.54;74.29;101053.16;419289;23;1006;-67
2023/01/24 00:47:05;;;;;;;11.88;6.68;;;;;;;3.59;75.04;101046.38;419200;23;1119;-67
2023/01/24 00:47:17;;;;;;;12.18;6.70;;;;;;;3.64;74.73;101050.75;418495;23;1074;-66
2023/01/24 00:47:28;;;;;;;12.32;6.78;;;;;;;3.65;74.80;101049.94;420893;23;1010;-67
2023/01/24 00:47:40;;;;;;;12.27;6.90;;;;;;;3.68;74.50;101050.84;421308;23;1010;-67
2023/01/24 00:47:52;;;;;;;12.40;6.95;;;;;;;3.70;74.76;101053.44;422019;23;888;-67
2023/01/24 00:48:05;;;;;;;11.63;6.65;;;;;;;3.69;74.66;101051.72;423342;23;1044;-67
2023/01/24 00:48:17;;;;;;;10.93;6.35;;;;;;;3.68;74.34;101057.69;423235;23;1246;-66
2023/01/24 00:48:29;;;;;;;9.88;6.60;;;;;;;3.70;74.30;101048.28;423335;23;1124;-67
2023/01/24 00:48:41;;;;;;;11.68;7.10;;;;;;;3.70;74.49;101048.28;423255;23;1167;-67
2023/01/24 00:48:53;;;;;;;12.68;7.25;;;;;;;3.75;74.11;101051.81;423813;23;1161;-67
2023/01/24 00:49:06;;;;;;;12.07;7.03;;;;;;;3.75;74.23;101046.69;423406;23;1157;-67
2023/01/24 00:49:19;;;;;;;11.30;6.90;;;;;;;3.76;73.96;101045.81;423429;23;1150;-67
2023/01/24 00:49:30;;;;;;;11.40;6.80;;;;;;;3.58;74.12;101048.94;423221;23;1300;-67
2023/01/24 00:49:43;;;;;;;11.52;7.00;;;;;;;3.63;74.20;101046.47;423412;23;1124;-66
2023/01/24 00:49:55;;;;;;;12.45;7.25;;;;;;;3.68;74.49;101047.41;423280;23;1044;-66
2023/01/24 00:50:07;;;;;;;12.07;7.35;;;;;;;3.69;74.78;101051.72;423698;23;1157;-67
2023/01/24 00:50:20;;;;;;;13.43;7.25;;;;;;;3.70;74.39;101048.28;423607;23;1145;-67
2023/01/24 00:50:33;;;;;;;13.02;6.70;;;;;;;3.62;74.73;101044.72;423531;23;1094;-67
2023/01/24 00:50:45;;;;;;;13.05;6.47;;;;;;;3.65;74.82;101055.06;423554;23;1529;-67
2023/01/24 00:50:57;;;;;;;11.77;6.38;;;;;;;3.64;74.60;101053.31;423021;23;1269;-66
2023/01/24 00:51:10;;;;;;;11.65;6.60;;;;;;;3.67;74.94;101050.81;423597;23;1089;-67
2023/01/24 00:51:22;;;;;;;10.95;6.88;;;;;;;3.68;75.23;101052.53;423764;23;1040;-69
2023/01/24 00:51:34;;;;;;;11.30;6.97;;;;;;;3.66;74.72;101056.78;423657;23;1245;-68
2023/01/24 00:51:46;;;;;;;11.73;7.00;;;;;;;3.63;75.03;101046.47;423776;23;1210;-69
2023/01/24 00:51:58;;;;;;;10.90;6.60;;;;;;;3.68;75.13;101055.09;423513;23;1054;-69
2023/01/24 00:52:10;;;;;;;11.40;6.90;;;;;;;3.69;74.55;101054.28;423921;23;912;-69
2023/01/24 00:52:22;;;;;;;12.15;6.70;;;;;;;3.71;74.36;101050.88;423743;23;1292;-69
2023/01/24 00:52:34;;;;;;;12.18;6.80;;;;;;;3.77;74.52;101050.13;423129;23;1081;-69
2023/01/24 00:52:46;;;;;;;11.38;6.78;;;;;;;3.78;74.18;101050.19;423580;23;1246;-66
2023/01/24 00:53:00;;;;;;;11.75;7.05;;;;;;;3.78;74.23;101046.72;422731;23;1087;-66
2023/01/24 00:53:12;;;;;;;11.48;6.90;;;;;;;3.82;73.99;101045.94;424751;23;707;-66
2023/01/24 00:53:25;;;;;;;11.98;7.10;;;;;;;3.78;74.21;101047.59;423508;23;1009;-66
2023/01/24 00:53:37;;;;;;;11.60;7.03;;;;;;;3.83;74.41;101052.81;423066;23;1151;-66
2023/01/24 00:53:49;;;;;;;11.32;6.80;;;;;;;3.85;74.44;101053.72;423867;23;1370;-66
2023/01/24 00:54:01;;;;;;;11.75;6.75;;;;;;;3.88;73.92;101053.75;425182;23;1022;-66
2023/01/24 00:54:13;;;;;;;11.95;6.88;;;;;;;3.87;74.33;101054.59;425080;23;1271;-66
2023/01/24 00:54:25;;;;;;;12.05;7.07;;;;;;;3.86;74.58;101058.00;425138;23;1073;-66
2023/01/24 00:54:37;;;;;;;12.10;7.15;;;;;;;3.87;74.90;101052.03;424802;23;1014;-66
2023/01/24 00:54:49;;;;;;;11.77;7.10;;;;;;;3.83;74.21;101055.38;424790;23;1263;-68
2023/01/24 00:55:01;;;;;;;12.23;7.43;;;;;;;3.89;74.50;101059.78;425300;23;1021;-67
2023/01/24 00:55:13;;;;;;;12.38;7.38;;;;;;;3.87;74.32;101056.31;426437;23;660;-67
2023/01/24 00:55:25;;;;;;;12.35;7.30;;;;;;;3.90;74.50;101062.34;425726;23;1033;-67
2023/01/24 00:55:44;;;;;;;10.85;7.03;;;;;;;3.85;74.14;101058.84;425536;23;1034;-67
2023/01/24 00:55:56;;;;;;;10.57;6.88;;;;;;;3.69;74.17;101057.72;425389;23;1194;-66
2023/01/24 00:56:08;;;;;;;10.55;6.53;;;;;;;3.63;74.17;101049.88;423216;23;1100;-67
2023/01/24 00:56:20;;;;;;;11.05;6.53;;;;;;;3.58;74.51;101054.06;423152;23;1285;-67
2023/01/24 00:56:32;;;;;;;11.15;6.60;;;;;;;3.56;74.59;101061.78;423292;23;1139;-67
2023/01/24 00:56:44;;;;;;;11.88;6.72;;;;;;;3.63;74.89;101056.75;423171;23;1071;-67
2023/01/24 00:56:56;;;;;;;11.50;6.65;;;;;;;3.66;74.92;101051.63;423352;23;882;-67
2023/01/24 00:57:08;;;;;;;11.35;6.55;;;;;;;3.68;74.65;101055.09;422819;23;1070;-67
2023/01/24 00:57:21;;;;;;;12.05;6.60;;;;;;;3.69;74.26;101057.72;423108;23;1164;-67
2023/01/24 00:57:33;;;;;;;11.65;6.68;;;;;;;3.59;74.68;101059.25;422968;23;1032;-67
2023/01/24 00:57:45;;;;;;;11.18;7.00;;;;;;;3.60;74.67;101053.28;423145;23;1003;-67
2023/01/24 00:57:57;;;;;;;11.90;7.28;;;;;;;3.66;74.90;101057.66;422464;23;1010;-66
2023/01/24 00:58:10;;;;;;;11.95;7.40;;;;;;;3.69;74.67;101056.84;423240;23;1060;-66
2023/01/24 00:58:23;;;;;;;12.57;7.25;;;;;;;3.72;74.36;101054.31;425532;23;1045;-67
2023/01/24 00:58:35;;;;;;;13.90;7.38;;;;;;;3.74;74.92;101055.22;425165;23;1067;-67
2023/01/24 00:58:47;;;;;;;13.10;7.15;;;;;;;3.76;74.51;101058.69;425134;23;1229;-67
2023/01/24 00:58:59;;;;;;;11.88;7.03;;;;;;;3.70;74.61;101053.44;424595;23;1271;-67
2023/01/24 00:59:10;;;;;;;12.35;7.30;;;;;;;3.65;75.07;101055.06;424910;23;1058;-67